createdAt,value
2023-02-22T00:04:23.083Z,5.50
2023-02-22T00:06:58.787Z,5.80
2023-02-22T00:12:12.715Z,6.50
2023-02-22T00:14:47.842Z,5.10
2023-02-22T00:27:27.319Z,5.60
2023-02-22T00:32:29.634Z,5.60
2023-02-22T00:35:08.950Z,5.70
2023-02-22T00:37:42.062Z,5.60
2023-02-22T00:40:15.911Z,5.80
2023-02-22T00:45:16.843Z,5.80
2023-02-22T00:50:23.686Z,5.80
2023-02-22T00:52:51.727Z,5.80
2023-02-22T00:55:30.872Z,5.90
2023-02-22T00:57:59.934Z,5.80
2023-02-22T01:00:37.740Z,5.90
2023-02-22T01:03:13.766Z,7.10
2023-02-22T01:05:50.513Z,6.00
2023-02-22T01:16:20.050Z,6.00
2023-02-22T01:19:02.724Z,6.00
2023-02-22T01:22:03.746Z,5.90
2023-02-22T01:24:41.321Z,5.60
2023-02-22T01:27:21.447Z,5.90
2023-02-22T01:32:38.147Z,5.90
2023-02-22T01:35:31.485Z,5.90
2023-02-22T01:38:19.361Z,5.90
2023-02-22T01:41:24.600Z,5.90
2023-02-22T01:43:57.957Z,5.90
2023-02-22T01:49:08.914Z,5.90
2023-02-22T01:52:02.199Z,5.80
2023-02-22T01:54:42.139Z,5.80
2023-02-22T01:57:19.739Z,5.70
2023-02-22T02:00:04.790Z,5.70
2023-02-22T02:02:51.823Z,5.70
2023-02-22T02:05:31.503Z,4.50
2023-02-22T02:08:19.587Z,5.60
2023-02-22T02:10:57.221Z,5.50
2023-02-22T02:13:55.596Z,5.70
2023-02-22T02:16:36.219Z,5.40
2023-02-22T02:19:32.887Z,5.40
2023-02-22T02:23:00.350Z,5.00
2023-02-22T02:26:07.577Z,5.10
2023-02-22T02:29:01.969Z,6.00
2023-02-22T02:32:03.531Z,5.00
2023-02-22T02:34:59.974Z,4.90
2023-02-22T02:38:02.434Z,6.00
2023-02-22T02:40:44.849Z,4.80
2023-02-22T02:43:53.797Z,4.80
2023-02-22T02:46:34.160Z,4.80
2023-02-22T02:49:21.759Z,4.20
2023-02-22T02:51:55.180Z,4.80
2023-02-22T03:02:48.534Z,5.00
2023-02-22T03:06:07.737Z,5.00
2023-02-22T03:11:31.131Z,5.20
2023-02-22T03:14:56.085Z,5.10
2023-02-22T03:18:06.168Z,5.10
2023-02-22T03:20:48.410Z,5.20
2023-02-22T03:23:43.786Z,5.30
2023-02-22T03:26:33.696Z,5.30
2023-02-22T03:29:28.949Z,5.30
2023-02-22T03:32:07.861Z,5.30
2023-02-22T03:34:38.219Z,6.10
2023-02-22T03:37:17.672Z,5.30
2023-02-22T03:39:50.761Z,5.40
2023-02-22T03:42:38.068Z,5.40
2023-02-22T03:45:14.295Z,7.20
2023-02-22T03:47:50.283Z,5.50
2023-02-22T03:50:25.949Z,5.50
2023-02-22T03:53:01.046Z,5.50
2023-02-22T03:55:31.565Z,5.50
2023-02-22T03:58:05.009Z,5.50
2023-02-22T04:00:34.925Z,7.30
2023-02-22T04:08:25.566Z,5.50
2023-02-22T04:11:09.773Z,5.40
2023-02-22T04:13:41.919Z,5.50
2023-02-22T04:21:17.927Z,5.50
2023-02-22T04:24:04.045Z,5.10
2023-02-22T04:26:38.535Z,5.60
2023-02-22T04:29:13.211Z,7.30
2023-02-22T04:31:49.501Z,5.50
2023-02-22T04:34:17.110Z,5.50
2023-02-22T04:36:47.231Z,5.60
2023-02-22T04:41:48.307Z,5.60
2023-02-22T04:47:06.381Z,5.50
2023-02-22T04:49:38.926Z,5.60
2023-02-22T04:52:10.444Z,5.50
2023-02-22T04:54:44.937Z,5.60
2023-02-22T05:02:25.210Z,5.60
2023-02-22T05:09:59.909Z,5.60
2023-02-22T05:15:03.956Z,5.70
2023-02-22T05:17:40.455Z,5.70
2023-02-22T05:20:49.385Z,5.10
2023-02-22T05:28:46.919Z,5.80
2023-02-22T05:31:29.954Z,5.80
2023-02-22T05:34:24.654Z,5.80
2023-02-22T05:37:14.341Z,6.00
2023-02-22T05:40:04.641Z,5.80
2023-02-22T05:43:08.336Z,7.10
2023-02-22T05:48:17.297Z,5.80
2023-02-22T05:50:50.159Z,7.30
2023-02-22T05:53:32.754Z,5.80
2023-02-22T06:01:19.784Z,5.80
2023-02-22T06:03:52.728Z,5.80
2023-02-22T06:06:49.240Z,5.70
2023-02-22T06:09:26.767Z,6.00
2023-02-22T06:15:00.869Z,7.60
2023-02-22T06:17:53.909Z,6.30
2023-02-22T06:20:47.345Z,7.50
2023-02-22T06:23:39.674Z,5.90
2023-02-22T06:28:49.608Z,6.00
2023-02-22T06:31:19.390Z,7.40
2023-02-22T06:36:20.168Z,5.90
2023-02-22T06:41:17.974Z,6.00
2023-02-22T06:43:48.223Z,7.40
2023-02-22T06:46:15.424Z,7.30
2023-02-22T06:48:43.116Z,6.00
2023-02-22T06:53:38.068Z,7.40
2023-02-22T06:58:35.786Z,6.00
2023-02-22T07:01:07.989Z,7.60
2023-02-22T07:03:35.992Z,6.10
2023-02-22T07:06:04.326Z,7.60
2023-02-22T07:08:31.439Z,5.80
2023-02-22T07:13:29.711Z,6.20
2023-02-22T07:15:56.753Z,6.90
2023-02-22T07:18:24.137Z,6.50
2023-02-22T07:20:51.252Z,6.60
2023-02-22T07:25:46.362Z,6.20
2023-02-22T07:28:13.398Z,6.20
2023-02-22T07:33:10.231Z,6.30
2023-02-22T07:35:46.545Z,6.30
2023-02-22T07:38:14.674Z,6.50
2023-02-22T07:40:42.716Z,6.90
2023-02-22T07:43:15.781Z,7.90
2023-02-22T07:48:12.526Z,6.80
2023-02-22T07:50:40.618Z,5.70
2023-02-22T07:53:19.033Z,6.90
2023-02-22T07:55:47.695Z,7.00
2023-02-22T07:58:15.742Z,8.40
2023-02-22T08:00:50.706Z,6.60
2023-02-22T08:03:24.080Z,7.20
2023-02-22T08:05:54.209Z,7.50
2023-02-22T08:10:51.693Z,7.20
2023-02-22T08:13:26.509Z,8.40
2023-02-22T08:15:56.631Z,4.60
2023-02-22T08:18:27.470Z,7.20
2023-02-22T08:21:05.145Z,7.30
2023-02-22T08:23:36.271Z,7.20
2023-02-22T08:26:09.599Z,7.20
2023-02-22T08:33:41.592Z,7.20
2023-02-22T08:36:09.428Z,7.20
2023-02-22T08:41:13.279Z,7.20
2023-02-22T08:46:13.338Z,7.20
2023-02-22T08:48:53.737Z,7.10
2023-02-22T08:53:51.958Z,7.10
2023-02-22T08:56:23.248Z,7.40
2023-02-22T08:58:50.581Z,7.10
2023-02-22T09:01:27.946Z,7.40
2023-02-22T09:03:59.363Z,7.60
2023-02-22T09:06:30.051Z,5.70
2023-02-22T09:16:22.069Z,7.40
2023-02-22T09:18:52.239Z,7.50
2023-02-22T09:21:20.465Z,7.40
2023-02-22T09:31:24.372Z,7.80
2023-02-22T09:38:52.321Z,7.90
2023-02-22T09:41:38.478Z,8.00
2023-02-22T09:44:18.348Z,8.10
2023-02-22T09:49:15.973Z,9.30
2023-02-22T09:51:58.028Z,8.30
2023-02-22T09:54:39.611Z,8.40
2023-02-22T09:57:17.823Z,8.50
2023-02-22T10:00:21.486Z,8.50
2023-02-22T10:02:52.114Z,8.50
2023-02-22T10:05:39.928Z,8.60
2023-02-22T10:08:20.465Z,10.10
2023-02-22T10:10:57.993Z,9.50
2023-02-22T10:13:28.426Z,9.50
2023-02-22T10:16:37.752Z,9.00
2023-02-22T10:19:39.124Z,8.90
2023-02-22T10:22:12.643Z,7.10
2023-02-22T10:25:09.573Z,8.50
2023-02-22T10:27:42.417Z,9.00
2023-02-22T10:30:26.678Z,9.10
2023-02-22T10:33:27.016Z,8.60
2023-02-22T10:35:58.693Z,8.60
2023-02-22T10:38:31.828Z,8.60
2023-02-22T10:41:11.221Z,9.20
2023-02-22T10:43:43.121Z,8.70
2023-02-22T10:46:18.554Z,9.40
2023-02-22T10:48:50.020Z,8.70
2023-02-22T10:51:17.218Z,10.40
2023-02-22T10:53:53.514Z,8.80
2023-02-22T10:56:24.314Z,8.90
2023-02-22T10:59:04.496Z,8.90
2023-02-22T11:01:31.880Z,8.90
2023-02-22T11:04:11.081Z,9.30
2023-02-22T11:06:44.299Z,9.10
2023-02-22T11:09:25.084Z,9.30
2023-02-22T11:12:22.129Z,10.50
2023-02-22T11:14:58.063Z,9.20
2023-02-22T11:17:35.709Z,9.90
2023-02-22T11:20:25.630Z,10.20
2023-02-22T11:23:06.263Z,9.50
2023-02-22T11:25:38.414Z,9.50
2023-02-22T11:28:19.925Z,9.50
2023-02-22T11:30:51.969Z,9.80
2023-02-22T11:33:30.229Z,9.90
2023-02-22T11:36:16.032Z,9.80
2023-02-22T11:38:59.138Z,9.80
2023-02-22T11:41:30.786Z,10.00
2023-02-22T11:44:36.704Z,11.20
2023-02-22T11:47:07.062Z,9.90
2023-02-22T11:49:42.790Z,10.10
2023-02-22T11:52:27.081Z,10.00
2023-02-22T11:55:06.729Z,10.90
2023-02-22T11:57:47.617Z,9.70
2023-02-22T12:00:47.655Z,11.20
2023-02-22T12:03:44.963Z,9.70
2023-02-22T12:06:42.060Z,9.70
2023-02-22T12:09:26.888Z,9.20
2023-02-22T12:12:09.297Z,9.80
2023-02-22T12:15:07.571Z,9.30
2023-02-22T12:18:00.567Z,14.00
2023-02-22T12:20:42.958Z,8.60
2023-02-22T12:23:23.735Z,9.60
2023-02-22T12:26:16.826Z,10.70
2023-02-22T12:29:14.679Z,9.90
2023-02-22T12:32:02.644Z,9.90
2023-02-22T12:35:25.062Z,9.90
2023-02-22T12:38:13.839Z,9.90
2023-02-22T12:41:00.647Z,10.00
2023-02-22T12:44:09.515Z,10.40
2023-02-22T12:46:56.143Z,9.70
2023-02-22T12:49:43.439Z,10.00
2023-02-22T12:52:30.830Z,10.00
2023-02-22T12:55:18.471Z,8.90
2023-02-22T12:58:14.938Z,10.10
2023-02-22T13:00:50.644Z,10.10
2023-02-22T13:03:30.465Z,10.00
2023-02-22T13:06:20.470Z,10.00
2023-02-22T13:08:59.424Z,10.10
2023-02-22T13:11:49.582Z,10.10
2023-02-22T13:17:11.336Z,11.00
2023-02-22T13:20:06.237Z,10.30
2023-02-22T13:22:53.592Z,10.20
2023-02-22T13:28:01.108Z,10.80
2023-02-22T13:30:36.673Z,9.70
2023-02-22T13:33:33.957Z,10.10
2023-02-22T13:36:34.188Z,10.10
2023-02-22T13:39:31.729Z,9.90
2023-02-22T13:42:26.273Z,9.80
2023-02-22T13:45:35.213Z,10.20
2023-02-22T13:49:05.428Z,9.80
2023-02-22T13:52:01.533Z,9.90
2023-02-22T13:54:43.036Z,9.80
2023-02-22T13:57:38.108Z,9.90
2023-02-22T14:00:16.374Z,10.70
2023-02-22T14:03:20.594Z,10.40
2023-02-22T14:06:08.489Z,9.90
2023-02-22T14:08:59.763Z,11.10
2023-02-22T14:11:44.425Z,13.10
2023-02-22T14:14:42.715Z,10.20
2023-02-22T14:22:07.242Z,9.80
2023-02-22T14:24:46.818Z,9.80
2023-02-22T14:27:17.672Z,10.10
2023-02-22T14:30:00.687Z,9.80
2023-02-22T14:33:35.561Z,10.60
2023-02-22T14:36:43.583Z,9.80
2023-02-22T14:39:53.429Z,8.20
2023-02-22T14:42:31.692Z,9.80
2023-02-22T14:45:10.412Z,9.70
2023-02-22T14:47:43.951Z,9.80
2023-02-22T14:50:49.806Z,9.70
2023-02-22T14:53:38.588Z,10.30
2023-02-22T14:56:11.769Z,9.70
2023-02-22T14:58:48.090Z,9.60
2023-02-22T15:01:48.906Z,9.00
2023-02-22T15:04:30.450Z,9.60
2023-02-22T15:07:15.342Z,8.60
2023-02-22T15:09:46.566Z,9.90
2023-02-22T15:12:26.719Z,9.50
2023-02-22T15:15:27.590Z,9.40
2023-02-22T15:17:56.640Z,9.50
2023-02-22T15:20:29.862Z,9.40
2023-02-22T15:23:02.520Z,9.80
2023-02-22T15:28:17.740Z,9.30
2023-02-22T15:31:16.850Z,9.20
2023-02-22T15:33:47.246Z,9.30
2023-02-22T15:36:19.130Z,10.10
2023-02-22T15:38:53.279Z,9.10
2023-02-22T15:41:31.511Z,9.10
2023-02-22T15:44:23.395Z,9.10
2023-02-22T15:46:57.123Z,9.10
2023-02-22T15:49:28.986Z,10.40
2023-02-22T15:52:07.436Z,9.10
2023-02-22T15:54:49.895Z,9.00
2023-02-22T15:57:22.046Z,9.00
2023-02-22T15:59:58.188Z,9.00
2023-02-22T16:02:42.354Z,9.00
2023-02-22T16:05:25.639Z,9.00
2023-02-22T16:08:03.232Z,8.90
2023-02-22T16:10:37.551Z,8.80
2023-02-22T16:22:03.059Z,8.70
2023-02-22T16:24:40.088Z,8.70
2023-02-22T16:27:18.850Z,8.70
2023-02-22T16:30:25.054Z,9.60
2023-02-22T16:33:13.642Z,8.60
2023-02-22T16:37:27.435Z,8.50
2023-02-22T16:41:53.829Z,8.40
2023-02-22T16:52:07.220Z,8.40
2023-02-22T17:12:24.337Z,8.20
2023-02-22T19:26:32.565Z,10.10
2023-02-22T19:29:44.749Z,8.00
2023-02-22T19:39:03.645Z,8.00
2023-02-22T19:47:39.726Z,7.80
2023-02-22T20:26:09.845Z,7.70
2023-02-22T20:33:24.078Z,7.70
2023-02-22T20:37:55.468Z,7.70
2023-02-22T20:41:41.394Z,7.60
2023-02-22T20:54:13.496Z,7.20
2023-02-22T21:01:20.368Z,7.60
2023-02-22T21:04:48.890Z,7.60
2023-02-22T21:58:41.449Z,6.90
2023-02-22T22:13:26.761Z,3.70
2023-02-22T23:31:11.192Z,6.90
2023-02-22T23:37:56.675Z,6.80
